CYBN

CFB Borden Heliport

Borden, Ontario, Canada
TAF CYBN 212330Z 2200/2212 30012KT P6SM SCT009 TEMPO 2200/2206 4SM -SHSN OVC009 RMK FCST BASED ON AUTO OBS. NXT FCST BY 220600Z
Issued Valid From Valid To
Jan-21 @ 23:30 UTC
(39 minutes ago)
Jan-22 @ 00:00 UTC
(9 minutes ago)
Jan-22 @ 12:00 UTC
(in 12 hours)
Jan-22 @ 00:00 to Jan-22 @ 12:00
TAF CYBN 212330Z 2200/2212 30012KT P6SM SCT009
Wind Visibility Clouds
300° at 12 knots Greater than 6 miles
  • Scattered at 900' AGL
Temporary Jan-22 @ 00:00 to Jan-22 @ 06:00
TEMPO 2200/2206 4SM -SHSN OVC009 RMK FCST BASED ON AUTO OBS. NXT FCST BY 220600Z
Visibility Clouds Conditions
4 miles
  • Overcast at 900' AGL
  • Light Snow
TAF CYBN 212330Z 2200/2212 30012KT P6SM SCT009 TEMPO 2200/2206 4SM -SHSN OVC009 RMK FCST BASED ON AUTO OBS. NXT FCST BY 220600Z
Issued Jan-21 @ 23:30 UTC
(39 minutes ago)
Valid From Jan-22 @ 00:00 UTC
(9 minutes ago)
Valid To Jan-22 @ 12:00 UTC
(in 12 hours)
Jan-22 @ 00:00 - Jan-22 @ 12:00
Wind Visibility
300° at 12 knots Greater than 6 miles
Clouds
  • Scattered at 900' AGL
Temporary Jan-22 @ 00:00 - Jan-22 @ 06:00
Clouds
  • Overcast at 900' AGL
Conditions
  • Light Snow